Saturday, December 15, 2018, 1:46 PM GMT
Back to Local

CYFC, Fredericton, N. B.

Location: , , Canada Lat: 45.867
Local Time: 1:46 PM GMT (13:46 GMT) Lon: -66.533
Time Zone: GMT Elev: 55 ft

Show me the last for .
Show Decoded

2018-12-15 13:00 METAR CYFC 151300Z AUTO 00000KT 9SM BKN041 02/ A3001 RMK TD MISG SLP166 =
2018-12-15 12:35 METAR CYFC 151235Z AUTO VRB02KT 9SM SCT008 OVC039 02/02 A3001 RMK SLP166 =
2018-12-15 12:32 METAR CYFC 151232Z AUTO 00000KT 9SM BKN008 OVC039 02/02 A3001 RMK SLP166 =
2018-12-15 12:31 METAR CYFC 151231Z AUTO VRB02KT 9SM SCT008 BKN011 OVC039 02/02 A3001 RMK SLP166
                 =
2018-12-15 12:27 METAR CYFC 151227Z AUTO 00000KT 9SM BKN008 OVC039 02/02 A3001 RMK SLP166 =
2018-12-15 12:24 METAR CYFC 151224Z AUTO 00000KT 9SM SCT008 BKN011 OVC039 02/02 A3001 RMK SLP165
                 =
2018-12-15 12:16 METAR CYFC 151216Z AUTO 00000KT 9SM BKN008 OVC011 02/02 A3000 RMK SLP162 =
2018-12-15 12:00 METAR CYFC 151200Z AUTO VRB02KT 9SM SCT007 OVC011 02/02 A2999 RMK SLP159 =
2018-12-15 11:41 METAR CYFC 151141Z AUTO VRB02KT 9SM BKN013 BKN034 02/02 A2999 RMK SLP158 =
2018-12-15 11:02 METAR CYFC 151102Z AUTO 22007KT 9SM OVC036 02/02 A2998 RMK SLP154 =
2018-12-15 11:00 METAR CYFC 151100Z AUTO 22008KT 9SM OVC036 02/02 A2998 RMK SLP155 =
2018-12-15 10:59 METAR CYFC 151059Z AUTO 22008KT 9SM OVC036 02/02 A2998 RMK SLP155 =
2018-12-15 10:21 METAR CYFC 151021Z AUTO 22010KT 9SM BKN100 02/02 A2998 RMK SLP154 =
2018-12-15 10:00 METAR CYFC 151000Z AUTO 21011KT 9SM BKN060 BKN083 OVC100 03/03 A2998 RMK SLP155
                 =
2018-12-15 09:30 METAR CYFC 150930Z AUTO 21010KT 9SM BKN060 OVC073 03/03 A2999 RMK SLP157 =
2018-12-15 09:03 METAR CYFC 150903Z AUTO 22011KT 9SM -RA SCT014 OVC049 03/03 A2999 RMK SLP158 =
2018-12-15 09:00 METAR CYFC 150900Z AUTO 22011KT 9SM -RA BKN014 OVC049 03/03 A2999 RMK SLP159 =
2018-12-15 08:00 METAR CYFC 150800Z AUTO 22010KT 9SM -RA OVC012 03/03 A3002 RMK SLP168 =
2018-12-15 07:49 METAR CYFC 150749Z AUTO 21008KT 9SM -RA BKN014 OVC021 03/03 A3002 RMK SLP167 =
2018-12-15 07:42 METAR CYFC 150742Z AUTO 21009KT 9SM BKN014 OVC021 03/03 A3002 RMK SLP169 =
2018-12-15 07:28 METAR CYFC 150728Z AUTO 20009KT 9SM -RA BKN014 OVC021 03/03 A3002 RMK PRESFR
                 SLP169 =
2018-12-15 07:21 METAR CYFC 150721Z AUTO 21008KT 9SM BKN014 OVC021 03/03 A3003 RMK SLP172 =
2018-12-15 07:00 METAR CYFC 150700Z AUTO 20008KT 9SM -RA BKN014 OVC039 03/03 A3004 RMK SLP174 =
2018-12-15 06:00 METAR CYFC 150600Z AUTO 20009KT 9SM -RA BKN016 BKN023 OVC029 03/02 A3005 RMK
                 PRESFR PCPN 0.5MM PAST HR SLP178 =
2018-12-15 05:00 METAR CYFC 150500Z AUTO 21010KT 9SM -RA BKN020 OVC034 03/01 A3009 RMK SLP193 =
2018-12-15 04:41 METAR CYFC 150441Z AUTO 21012KT 9SM -RA BKN020 OVC034 03/01 A3010 RMK SLP196 =
2018-12-15 04:38 METAR CYFC 150438Z AUTO 20011KT 9SM -RA SCT018 OVC034 03/01 A3010 RMK SLP197 =
2018-12-15 04:35 METAR CYFC 150435Z AUTO 21010G15KT 9SM SCT018 OVC034 03/01 A3010 RMK SLP197 =
2018-12-15 04:15 METAR CYFC 150415Z AUTO 21010G15KT 9SM BKN020 OVC036 03/01 A3012 RMK SLP202 =
2018-12-15 04:11 METAR CYFC 150411Z AUTO 21009G15KT 9SM -RA BKN020 OVC036 03/01 A3012 RMK SLP202
                 =
2018-12-15 04:01 METAR CYFC 150401Z AUTO 21010G16KT 9SM -RA FEW020 OVC036 03/01 A3012 RMK SLP204
                 =
2018-12-15 04:00 METAR CYFC 150400Z AUTO 21011G16KT 9SM FEW020 OVC036 03/01 A3012 RMK SLP204 =
2018-12-15 03:00 METAR CYFC 150300Z AUTO 21014G21KT 9SM SCT019 OVC049 03/01 A3016 RMK SLP216 =
2018-12-15 02:34 METAR CYFC 150234Z AUTO 19013G19KT 9SM SCT019 OVC049 03/01 A3017 RMK PRESFR
                 SLP220 =
2018-12-15 02:20 METAR CYFC 150220Z AUTO 20012G17KT 9SM BKN019 OVC049 03/01 A3019 RMK SLP225 =
2018-12-15 02:07 METAR CYFC 150207Z AUTO 20014G21KT 9SM SCT019 OVC049 03/01 A3018 RMK PRESFR
                 SLP224 =
2018-12-15 02:00 METAR CYFC 150200Z AUTO 21011KT 9SM BKN019 OVC047 03/01 A3020 RMK SLP229 =
2018-12-15 01:49 METAR CYFC 150149Z AUTO 21011G18KT 9SM BKN019 OVC047 03/01 A3020 RMK SLP231 =
2018-12-15 01:00 METAR CYFC 150100Z AUTO 21009G15KT 9SM OVC045 03/00 A3023 RMK PRESFR SLP241 =
2018-12-15 00:58 METAR CYFC 150058Z AUTO 20010G16KT 9SM OVC045 02/00 A3024 RMK PRESFR SLP242 =
2018-12-15 00:52 METAR CYFC 150052Z AUTO 21010G16KT 9SM OVC045 02/00 A3024 RMK SLP242 =
2018-12-15 00:00 METAR CYFC 150000Z AUTO 19008KT 9SM OVC043 01/M01 A3027 RMK SLP253 =
2018-12-14 23:00 METAR CYFC 142300Z AUTO 19005KT 9SM FEW021 BKN045 M01/M03 A3029 RMK SLP259 =
2018-12-14 22:44 METAR CYFC 142244Z AUTO 19005KT 9SM SCT021 BKN042 M01/M03 A3030 RMK SLP262 =
2018-12-14 22:33 METAR CYFC 142233Z AUTO 18006KT 9SM BKN021 BKN042 00/M03 A3030 RMK SLP262 =
2018-12-14 22:00 METAR CYFC 142200Z AUTO 18004KT 9SM BKN042 00/M03 A3031 RMK SLP266 =
2018-12-14 21:00 METAR CYFC 142100Z AUTO 19007KT 9SM OVC040 01/M03 A3033 RMK SLP273 =
2018-12-14 20:00 METAR CYFC 142000Z AUTO 22008G15KT 9SM OVC036 01/M03 A3036 RMK SLP284 =
2018-12-14 19:00 METAR CYFC 141900Z AUTO 21010G15KT 9SM CLR 01/M03 A3037 RMK SLP287 =
2018-12-14 18:00 METAR CYFC 141800Z AUTO 19013G21KT 9SM CLR 01/M03 A3037 RMK PRESFR SLP286 =
2018-12-14 17:00 METAR CYFC 141700Z AUTO 22010G15KT 070V240 9SM CLR M01/M04 A3041 RMK SLP299 =
2018-12-14 16:00 METAR CYFC 141600Z AUTO VRB02KT 9SM CLR M07/M11 A3045 RMK SLP315 =
2018-12-14 15:00 METAR CYFC 141500Z AUTO 00000KT 9SM CLR M09/M13 A3049 RMK SLP327 =
2018-12-14 14:00 METAR CYFC 141400Z AUTO 10003KT 9SM CLR M13/M15 A3049 RMK SLP330 =

Support USWX by starting your Amazon purchase here.